Time;durP1;ratioP1;P1;durP2;ratioP2;P2;SDS_P1;SDS_P2;PMS_P1;PMS_P2;Temp;Humidity;BMP_temperature;BMP_pressure;BME280_temperature;BME280_humidity;BME280_pressure;Samples;Min_cycle;Max_cycle;Signal;HPM_P1;HPM_P2
2022/01/28 13:58:14;;;;;;;3.43;1.47;;;;;;;14.66;31.30;99046.38;5033280;23;20309;-86
2022/01/28 14:00:47;;;;;;;2.33;0.77;;;;;;;14.76;31.35;99042.13;4918738;29;20183;-86
2022/01/28 14:03:21;;;;;;;3.10;1.43;;;;;;;14.28;31.87;99047.31;4919013;29;20287;-89
2022/01/28 14:05:54;;;;;;;3.30;0.70;;;;;;;14.25;31.58;99055.44;4918729;29;20232;-86
2022/01/28 14:08:41;;;;;;;2.43;0.67;;;;;;;13.87;32.23;99056.25;4918244;29;20183;-87
2022/01/28 14:11:21;;;;;;;8.73;1.00;;;;;;;13.55;33.21;99057.53;4918521;29;20229;-86
2022/01/28 14:16:55;;;;;;;0.60;0.40;;;;;;;13.31;33.48;99053.88;4918148;29;20185;-86
2022/01/28 14:19:23;;;;;;;1.80;0.80;;;;;;;13.18;33.75;99063.53;4918708;29;20208;-85
2022/01/28 14:21:49;;;;;;;2.37;1.10;;;;;;;12.83;34.43;99063.09;4917900;29;20186;-85
2022/01/28 14:24:20;;;;;;;1.83;0.70;;;;;;;12.70;34.49;99059.53;4918041;29;20174;-88
2022/01/28 14:32:15;;;;;;;2.93;1.27;;;;;;;12.74;35.06;99066.28;4917798;29;20264;-86
2022/01/28 14:34:42;;;;;;;5.97;1.00;;;;;;;12.57;35.40;99061.22;4917788;29;20191;-88
2022/01/28 14:37:08;;;;;;;1.67;0.90;;;;;;;12.51;36.15;99062.44;4918329;29;20216;-89
2022/01/28 14:39:35;;;;;;;2.73;1.13;;;;;;;12.32;35.93;99065.34;4917904;29;20623;-86
2022/01/28 14:42:09;;;;;;;2.30;0.70;;;;;;;12.19;36.47;99068.81;4917602;29;20196;-87
2022/01/28 14:44:37;;;;;;;3.33;1.20;;;;;;;12.30;36.09;99061.97;4917523;29;20194;-85
2022/01/28 14:47:07;;;;;;;4.73;2.00;;;;;;;12.15;36.59;99072.56;4917543;29;20263;-90
2022/01/28 14:49:33;;;;;;;4.10;1.27;;;;;;;11.91;37.11;99089.78;4917406;29;20204;-86
2022/01/28 14:52:06;;;;;;;3.33;1.00;;;;;;;11.86;37.12;99083.97;4917539;29;20184;-85
2022/01/28 14:54:32;;;;;;;7.10;1.83;;;;;;;12.05;36.89;99076.69;4916674;29;20176;-87
2022/01/28 14:57:07;;;;;;;4.20;2.20;;;;;;;12.09;36.75;99083.44;4917310;29;20199;-86
2022/01/28 14:59:35;;;;;;;3.07;1.33;;;;;;;12.18;36.32;99082.91;4917306;29;20164;-85
2022/01/28 15:02:05;;;;;;;3.23;1.23;;;;;;;12.22;36.78;99082.63;4917335;29;20689;-85
2022/01/28 15:04:30;;;;;;;3.40;1.60;;;;;;;12.04;37.21;99099.47;4917458;29;20189;-85
2022/01/28 15:07:16;;;;;;;4.20;1.87;;;;;;;12.14;36.67;99092.75;4917181;29;20176;-86
2022/01/28 15:09:42;;;;;;;3.37;1.27;;;;;;;11.93;36.90;99094.00;4916079;29;20215;-90
2022/01/28 15:12:16;;;;;;;3.93;1.40;;;;;;;11.65;37.57;99097.38;4915779;29;20274;-86
2022/01/28 15:15:17;;;;;;;2.83;1.13;;;;;;;11.51;38.18;99097.31;4917461;29;20253;-86
2022/01/28 15:17:42;;;;;;;5.03;1.10;;;;;;;11.44;38.04;99090.72;4917654;29;20158;-86
2022/01/28 15:20:10;;;;;;;7.30;2.17;;;;;;;11.33;38.30;99106.22;4917271;29;20174;-88
2022/01/28 15:22:39;;;;;;;3.33;1.27;;;;;;;11.13;39.25;99106.50;4916135;29;20194;-89
2022/01/28 15:25:23;;;;;;;4.33;1.53;;;;;;;10.93;39.78;99110.19;4916400;29;20285;-88
2022/01/28 15:27:52;;;;;;;3.77;1.80;;;;;;;10.91;39.93;99113.81;4916007;29;20183;-86
2022/01/28 15:38:33;;;;;;;3.37;0.97;;;;;;;10.49;41.49;99130.91;4917663;29;20181;-87
2022/01/28 15:40:59;;;;;;;11.97;1.67;;;;;;;10.34;42.09;99131.72;4917091;29;20158;-87
2022/01/28 15:43:24;;;;;;;1.33;0.83;;;;;;;10.36;41.93;99124.63;4916135;29;20629;-90
2022/01/28 15:45:52;;;;;;;3.17;1.27;;;;;;;10.23;42.41;99141.91;4917107;29;20181;-87
2022/01/28 15:48:18;;;;;;;2.60;1.80;;;;;;;10.31;42.42;99146.75;4917013;29;20249;-88
2022/01/28 15:50:48;;;;;;;3.53;1.30;;;;;;;10.45;42.10;99155.56;4917508;29;20203;-89
2022/01/28 15:53:23;;;;;;;3.03;1.13;;;;;;;10.37;42.29;99154.28;4917248;29;20517;-90
2022/01/28 15:55:55;;;;;;;2.07;1.17;;;;;;;10.22;42.13;99148.03;4916552;29;20189;-88
2022/01/28 15:58:21;;;;;;;2.97;1.40;;;;;;;10.37;42.14;99151.66;4916792;29;20636;-87
2022/01/28 16:00:47;;;;;;;3.83;1.97;;;;;;;10.35;42.38;99164.84;4917005;29;20175;-90
2022/01/28 16:03:15;;;;;;;6.33;2.67;;;;;;;10.44;42.17;99166.13;4915700;29;20282;-88
2022/01/28 16:05:41;;;;;;;4.47;2.57;;;;;;;10.45;42.07;99170.47;4916029;29;20178;-88
2022/01/28 16:08:15;;;;;;;12.70;5.43;;;;;;;10.22;42.22;99163.75;4915584;29;20277;-89
2022/01/28 16:11:34;;;;;;;6.33;3.23;;;;;;;10.05;42.50;99163.75;4916128;29;20530;-90
2022/01/28 16:22:42;;;;;;;5.67;2.00;;;;;;;10.62;41.77;99191.41;4899367;29;20294;-86
2022/01/28 16:25:20;;;;;;;4.07;1.83;;;;;;;10.47;41.78;99179.94;4882884;29;20325;-87
2022/01/28 16:28:10;;;;;;;4.30;1.83;;;;;;;10.47;42.06;99185.19;4899840;29;20209;-86
2022/01/28 16:38:24;;;;;;;2.93;1.40;;;;;;;9.77;43.65;99156.38;4899642;29;20255;-87
2022/01/28 16:41:17;;;;;;;2.70;1.63;;;;;;;9.52;44.53;99160.28;4891327;29;20259;-88
2022/01/28 16:47:58;;;;;;;5.30;2.53;;;;;;;9.09;44.46;99170.13;4872891;29;20194;-87
2022/01/28 16:50:33;;;;;;;8.87;3.47;;;;;;;9.25;44.46;99163.28;4899397;29;20206;-88
2022/01/28 16:53:11;;;;;;;3.80;1.00;;;;;;;8.91;44.91;99176.19;4888373;29;20655;-90
2022/01/28 16:55:56;;;;;;;3.00;1.70;;;;;;;8.81;44.88;99177.53;4899734;29;20252;-86
2022/01/28 16:58:35;;;;;;;4.77;1.70;;;;;;;8.69;44.37;99161.56;4899186;29;20205;-87
2022/01/28 17:01:22;;;;;;;1.77;1.20;;;;;;;8.72;43.76;99172.72;4896252;29;20223;-86
2022/01/28 17:04:10;;;;;;;5.83;1.10;;;;;;;8.79;44.49;99176.75;4883508;29;20561;-86
2022/01/28 17:06:59;;;;;;;2.63;1.00;;;;;;;8.75;44.84;99183.06;4884026;29;20203;-88
2022/01/28 17:09:37;;;;;;;1.33;0.80;;;;;;;8.71;45.05;99186.69;4883421;29;20737;-88
2022/01/28 17:18:04;;;;;;;1.50;0.63;;;;;;;8.50;45.00;99187.63;4901100;29;20190;-84
2022/01/28 17:24:02;;;;;;;0.70;0.67;;;;;;;8.53;44.25;99203.19;4900952;29;20187;-90
2022/01/28 17:26:35;;;;;;;2.67;0.80;;;;;;;8.56;44.09;99213.50;4900407;29;20188;-89
2022/01/28 17:29:00;;;;;;;1.57;0.87;;;;;;;8.38;44.65;99217.75;4900654;29;20181;-89
2022/01/28 17:31:26;;;;;;;1.20;1.10;;;;;;;8.44;44.13;99209.63;4899994;29;20205;-89
2022/01/28 17:33:51;;;;;;;4.13;1.73;;;;;;;8.47;44.12;99206.03;4900013;29;20184;-90
2022/01/28 17:36:17;;;;;;;2.20;1.17;;;;;;;8.46;43.95;99212.22;4899156;29;20190;-86
2022/01/28 17:38:45;;;;;;;1.60;0.90;;;;;;;8.39;43.71;99222.06;4900082;29;20256;-89
2022/01/28 17:41:12;;;;;;;1.50;0.70;;;;;;;8.37;44.08;99220.41;4900452;29;20175;-90
2022/01/28 17:43:38;;;;;;;2.97;1.00;;;;;;;8.45;43.82;99226.16;4899152;29;20213;-89
2022/01/28 17:46:03;;;;;;;1.53;0.80;;;;;;;8.37;44.55;99226.50;4900106;29;20647;-91
2022/01/28 17:48:30;;;;;;;3.20;1.23;;;;;;;8.37;43.96;99242.16;4915062;29;20200;-91
2022/01/28 17:50:58;;;;;;;2.40;1.47;;;;;;;8.19;44.02;99247.25;4899184;29;20243;-90
2022/01/28 17:53:24;;;;;;;2.83;1.30;;;;;;;8.13;44.97;99252.72;4899614;29;20620;-89
2022/01/28 17:55:49;;;;;;;1.90;0.90;;;;;;;8.21;44.29;99237.59;4900644;29;20202;-86
2022/01/28 17:58:15;;;;;;;4.10;1.43;;;;;;;8.23;45.49;99247.06;4914447;29;20255;-87
2022/01/28 18:00:41;;;;;;;4.53;0.90;;;;;;;8.09;44.98;99238.97;4899814;29;20191;-89
2022/01/28 18:03:09;;;;;;;2.67;1.00;;;;;;;7.96;45.54;99238.63;4900226;29;20185;-92
2022/01/28 18:05:35;;;;;;;3.20;0.73;;;;;;;7.91;45.41;99244.94;4899804;29;20619;-87
2022/01/28 18:08:00;;;;;;;3.53;1.17;;;;;;;8.00;45.29;99253.25;4914855;29;20202;-89
2022/01/28 18:10:29;;;;;;;7.17;2.00;;;;;;;7.78;46.41;99241.94;4914998;29;20218;-87
2022/01/28 18:13:02;;;;;;;1.73;1.23;;;;;;;7.82;45.88;99251.38;4898757;29;20547;-89
2022/01/28 18:15:32;;;;;;;1.40;0.70;;;;;;;7.87;45.54;99249.41;4913770;29;20196;-90
2022/01/28 18:18:04;;;;;;;1.70;0.80;;;;;;;7.58;45.79;99249.72;4899340;29;20191;-85
2022/01/28 18:20:31;;;;;;;2.90;1.37;;;;;;;7.62;46.04;99247.84;4914894;29;20335;-86
2022/01/28 18:23:04;;;;;;;2.67;1.17;;;;;;;7.72;45.55;99254.41;4914636;29;20199;-94
2022/01/28 18:25:30;;;;;;;1.57;1.20;;;;;;;7.78;45.06;99265.44;4899251;29;20190;-91
2022/01/28 18:27:59;;;;;;;0.70;0.47;;;;;;;7.86;44.86;99268.59;4899560;29;20626;-93
2022/01/28 18:30:30;;;;;;;2.63;1.47;;;;;;;7.83;45.76;99257.44;4899988;29;20212;-92
2022/01/28 18:32:56;;;;;;;1.73;1.07;;;;;;;7.72;45.52;99278.72;4914227;29;20196;-86
2022/01/28 18:35:22;;;;;;;2.67;1.00;;;;;;;7.85;45.91;99281.72;4913417;29;20649;-88
2022/01/28 18:37:48;;;;;;;2.00;0.93;;;;;;;7.68;45.63;99271.91;4898929;29;20180;-91
2022/01/28 18:40:17;;;;;;;1.90;1.43;;;;;;;7.64;45.54;99277.31;4914569;29;20603;-90
2022/01/28 18:42:54;;;;;;;2.53;1.10;;;;;;;7.84;45.56;99277.38;4899425;29;20183;-93
2022/01/28 18:45:25;;;;;;;1.43;0.93;;;;;;;7.89;44.89;99281.53;4898346;29;20187;-90
2022/01/28 18:47:51;;;;;;;1.47;1.00;;;;;;;7.63;45.16;99286.91;4899035;29;20168;-86
2022/01/28 18:50:17;;;;;;;8.37;1.07;;;;;;;7.71;45.23;99278.78;4914015;29;20602;-85
2022/01/28 18:52:43;;;;;;;4.90;1.20;;;;;;;7.70;45.31;99291.00;4898525;29;20190;-87
2022/01/28 18:55:09;;;;;;;3.57;1.10;;;;;;;7.80;45.18;99294.94;4898514;29;20638;-86
2022/01/28 18:57:35;;;;;;;2.63;1.07;;;;;;;7.84;44.68;99286.06;4913379;29;20234;-86
2022/01/28 19:00:00;;;;;;;0.60;0.33;;;;;;;7.75;44.65;99286.44;4913608;29;20211;-88
2022/01/28 19:02:28;;;;;;;1.00;0.80;;;;;;;7.67;45.34;99291.09;4898783;29;20214;-89
2022/01/28 19:04:57;;;;;;;1.60;0.77;;;;;;;7.64;44.70;99288.63;4898962;29;20682;-86
2022/01/28 19:07:24;;;;;;;2.70;0.73;;;;;;;7.76;44.58;99282.91;4898966;29;20184;-90
2022/01/28 19:09:50;;;;;;;3.17;1.27;;;;;;;7.88;44.53;99287.66;4898284;29;20203;-86
2022/01/28 19:12:20;;;;;;;10.53;2.93;;;;;;;7.68;44.53;99287.56;4898405;29;20181;-88
2022/01/28 19:14:47;;;;;;;3.90;2.00;;;;;;;7.63;44.12;99281.69;4898423;29;20538;-86
2022/01/28 19:17:18;;;;;;;0.93;0.67;;;;;;;7.54;44.70;99295.09;4898299;29;20631;-91
2022/01/28 19:19:47;;;;;;;3.50;1.53;;;;;;;7.61;44.86;99293.94;4898528;29;20191;-89
2022/01/28 19:22:18;;;;;;;2.53;1.37;;;;;;;7.66;44.61;99312.00;4898317;29;20264;-91
2022/01/28 19:24:44;;;;;;;1.03;0.70;;;;;;;7.57;44.70;99297.59;4898382;29;20160;-90
2022/01/28 19:27:10;;;;;;;7.97;1.30;;;;;;;7.65;44.62;99292.91;4898141;29;20198;-89
2022/01/28 19:29:36;;;;;;;5.20;1.93;;;;;;;7.52;44.85;99319.53;4913100;29;20186;-89
2022/01/28 19:32:03;;;;;;;1.23;0.70;;;;;;;7.52;44.28;99317.75;4913280;29;20573;-89
2022/01/28 19:34:32;;;;;;;0.97;0.70;;;;;;;7.51;44.91;99318.69;4898320;29;20180;-88
2022/01/28 19:37:00;;;;;;;4.50;1.60;;;;;;;7.65;45.27;99331.22;4912876;29;20640;-90
2022/01/28 19:39:26;;;;;;;1.80;1.20;;;;;;;7.47;45.29;99329.28;4898529;29;20187;-92
2022/01/28 19:41:51;;;;;;;2.23;1.60;;;;;;;7.42;46.04;99335.50;4898051;29;20187;-86
2022/01/28 19:44:17;;;;;;;2.97;1.73;;;;;;;7.47;45.31;99334.50;4898409;29;20192;-87
2022/01/28 19:46:43;;;;;;;1.53;0.70;;;;;;;7.50;45.72;99326.53;4898529;29;20247;-88
2022/01/28 19:49:10;;;;;;;1.60;1.30;;;;;;;7.34;46.35;99332.31;4900891;29;20183;-86
2022/01/28 19:51:40;;;;;;;4.03;2.13;;;;;;;7.32;46.28;99336.75;4901866;29;20204;-85
2022/01/28 19:54:11;;;;;;;1.37;1.10;;;;;;;7.14;46.83;99349.59;4902116;29;20204;-88
2022/01/28 19:56:39;;;;;;;4.90;1.43;;;;;;;7.11;46.39;99318.41;4901721;29;20287;-92
2022/01/28 19:59:09;;;;;;;2.87;1.50;;;;;;;7.14;46.87;99347.84;4916562;29;20191;-88
2022/01/28 20:01:36;;;;;;;2.33;1.30;;;;;;;7.20;46.58;99365.88;4916454;29;20646;-85
2022/01/28 20:04:02;;;;;;;2.83;1.47;;;;;;;7.17;46.91;99352.94;4901637;29;20263;-86
2022/01/28 20:06:28;;;;;;;0.70;0.60;;;;;;;7.19;46.64;99347.66;4900692;29;20608;-91
2022/01/28 20:08:54;;;;;;;1.47;1.10;;;;;;;7.22;46.34;99363.19;4916387;29;20271;-88
2022/01/28 20:11:25;;;;;;;1.50;0.73;;;;;;;6.97;47.05;99357.16;4901360;29;20311;-88
2022/01/28 20:13:51;;;;;;;3.90;0.90;;;;;;;7.00;47.75;99357.03;4916421;29;20183;-86
2022/01/28 20:16:17;;;;;;;2.83;1.17;;;;;;;6.86;47.90;99344.50;4916270;29;20629;-87
2022/01/28 20:18:45;;;;;;;2.00;0.83;;;;;;;6.80;47.61;99345.56;4901791;29;20258;-85
2022/01/28 20:21:11;;;;;;;2.17;1.17;;;;;;;6.72;47.75;99347.56;4901465;29;20190;-90
2022/01/28 20:23:37;;;;;;;3.03;1.20;;;;;;;6.85;47.21;99349.75;4901530;29;20187;-89
2022/01/28 20:26:03;;;;;;;1.90;0.73;;;;;;;6.55;48.42;99346.44;4901302;29;20207;-85
2022/01/28 20:28:32;;;;;;;4.37;1.93;;;;;;;6.58;48.57;99346.31;4916044;29;20292;-89
2022/01/28 20:30:58;;;;;;;1.37;0.97;;;;;;;6.54;48.36;99348.19;4916029;29;20207;-88
2022/01/28 20:33:25;;;;;;;0.57;0.40;;;;;;;6.59;48.27;99359.28;4916074;29;20185;-89
2022/01/28 20:35:51;;;;;;;2.27;1.33;;;;;;;6.75;47.96;99352.69;4901450;29;20175;-88
2022/01/28 20:38:19;;;;;;;7.17;1.90;;;;;;;6.64;47.84;99353.91;4901589;29;20591;-86
2022/01/28 20:40:45;;;;;;;2.40;1.30;;;;;;;6.64;48.08;99359.13;4901144;29;20229;-90
2022/01/28 20:43:10;;;;;;;2.43;1.20;;;;;;;6.59;48.00;99381.88;4901005;29;20190;-88
2022/01/28 20:45:35;;;;;;;5.93;1.87;;;;;;;6.65;47.90;99397.31;4901173;29;20225;-86
2022/01/28 20:48:01;;;;;;;3.57;1.37;;;;;;;6.66;47.85;99389.44;4916445;29;20619;-87
2022/01/28 20:50:27;;;;;;;1.37;0.70;;;;;;;6.60;47.80;99394.84;4901011;29;20218;-85
2022/01/28 20:52:54;;;;;;;3.17;1.60;;;;;;;6.59;48.20;99398.34;4900940;29;20568;-85
2022/01/28 20:55:23;;;;;;;2.63;1.10;;;;;;;6.63;48.38;99394.75;4901337;29;20198;-94
2022/01/28 20:57:49;;;;;;;1.03;0.70;;;;;;;6.62;48.49;99394.81;4915519;29;20214;-87
2022/01/28 21:00:20;;;;;;;0.90;0.53;;;;;;;6.40;48.53;99404.19;4899730;29;20191;-89
2022/01/28 21:02:48;;;;;;;2.00;1.00;;;;;;;6.38;48.97;99399.03;4915441;29;20627;-85
2022/01/28 21:05:14;;;;;;;2.47;1.10;;;;;;;6.61;48.38;99386.13;4899565;29;20190;-84
2022/01/28 21:07:48;;;;;;;3.23;2.40;;;;;;;6.78;48.47;99414.25;4900466;29;20198;-92
2022/01/28 21:10:32;;;;;;;1.00;0.77;;;;;;;6.64;48.29;99412.09;4899689;29;20378;-92
2022/01/28 21:12:57;;;;;;;1.93;1.20;;;;;;;6.52;48.90;99409.88;4900932;29;20175;-84
2022/01/28 21:15:23;;;;;;;1.40;0.97;;;;;;;6.74;48.17;99416.09;4900706;29;20179;-84
2022/01/28 21:17:58;;;;;;;2.87;0.80;;;;;;;6.51;48.53;99421.19;4900910;29;20512;-93
2022/01/28 21:20:23;;;;;;;2.90;1.03;;;;;;;6.64;48.32;99426.84;4900774;29;20162;-85
2022/01/28 21:22:53;;;;;;;3.73;1.30;;;;;;;6.51;48.97;99439.41;4900805;29;20194;-92
2022/01/28 21:25:19;;;;;;;3.23;0.97;;;;;;;6.49;48.47;99449.03;4900005;29;20190;-88
2022/01/28 21:27:44;;;;;;;1.80;0.70;;;;;;;6.58;48.51;99438.31;4900236;29;20555;-88
2022/01/28 21:30:30;;;;;;;7.20;1.80;;;;;;;6.72;48.14;99430.06;4915319;29;20210;-89
2022/01/28 21:33:05;;;;;;;2.60;1.47;;;;;;;6.50;48.34;99432.50;4900967;29;20179;-89
2022/01/28 21:35:30;;;;;;;4.70;1.73;;;;;;;6.53;48.11;99421.13;4900144;29;20178;-85
2022/01/28 21:37:56;;;;;;;12.03;2.03;;;;;;;6.56;48.28;99427.09;4899527;29;20195;-88
2022/01/28 21:40:22;;;;;;;5.37;2.40;;;;;;;6.70;47.93;99429.25;4899902;29;20190;-89
2022/01/28 21:42:47;;;;;;;1.73;0.97;;;;;;;6.46;48.16;99433.50;4899877;29;20266;-88
2022/01/28 21:45:13;;;;;;;6.10;1.60;;;;;;;6.65;47.79;99437.25;4900070;29;20262;-87
2022/01/28 21:47:41;;;;;;;3.53;1.13;;;;;;;6.69;47.16;99425.81;4899975;29;20175;-92
2022/01/28 21:50:07;;;;;;;6.23;3.23;;;;;;;6.58;47.58;99438.31;4900203;29;20555;-87
2022/01/28 21:52:33;;;;;;;1.73;1.13;;;;;;;6.55;47.84;99417.56;4899735;29;20198;-86
2022/01/28 21:55:01;;;;;;;3.73;1.17;;;;;;;6.34;48.18;99426.06;4899696;29;20179;-87
2022/01/28 21:57:26;;;;;;;7.23;2.47;;;;;;;6.54;48.04;99430.66;4914573;29;20290;-88
2022/01/28 21:59:52;;;;;;;0.90;0.70;;;;;;;6.46;47.31;99427.44;4899581;29;20175;-85
2022/01/28 22:02:17;;;;;;;1.90;1.07;;;;;;;6.51;47.58;99426.41;4899732;29;20580;-83
2022/01/28 22:04:47;;;;;;;2.43;1.43;;;;;;;6.52;47.70;99438.53;4899806;29;20183;-87
2022/01/28 22:07:13;;;;;;;3.13;1.43;;;;;;;6.57;47.46;99431.41;4899727;29;20163;-88
2022/01/28 22:09:38;;;;;;;1.67;1.10;;;;;;;6.58;47.06;99442.66;4898693;29;20201;-88
2022/01/28 22:12:04;;;;;;;2.50;1.30;;;;;;;6.67;47.37;99435.44;4899173;29;20179;-86
2022/01/28 22:14:29;;;;;;;1.80;0.73;;;;;;;6.60;46.95;99436.50;4899470;29;20262;-85
2022/01/28 22:16:57;;;;;;;2.70;1.27;;;;;;;6.50;47.44;99447.28;4899260;29;20182;-87
2022/01/28 22:19:23;;;;;;;3.33;1.67;;;;;;;6.73;47.29;99452.63;4899242;29;20662;-85
2022/01/28 22:21:48;;;;;;;1.37;0.73;;;;;;;6.73;46.80;99455.22;4899878;29;20199;-85
2022/01/28 22:24:14;;;;;;;3.40;1.63;;;;;;;6.75;46.81;99467.28;4899637;29;20198;-90
2022/01/28 22:26:39;;;;;;;3.53;1.57;;;;;;;6.78;46.25;99461.13;4899192;29;20191;-92
2022/01/28 22:29:05;;;;;;;2.33;1.47;;;;;;;6.91;46.43;99466.78;4914667;29;20190;-90
2022/01/28 22:31:30;;;;;;;0.70;0.60;;;;;;;6.84;46.08;99462.69;4899424;29;20267;-89
2022/01/28 22:33:56;;;;;;;1.57;0.97;;;;;;;7.00;45.92;99467.34;4913861;29;20628;-91
2022/01/28 22:36:21;;;;;;;1.13;0.80;;;;;;;7.03;45.56;99476.81;4899017;29;20183;-88
2022/01/28 22:38:47;;;;;;;1.97;0.73;;;;;;;6.88;45.66;99472.09;4898956;29;20190;-85
2022/01/28 22:41:13;;;;;;;2.60;1.40;;;;;;;6.93;45.30;99472.81;4899058;29;20175;-90
2022/01/28 22:43:38;;;;;;;6.00;0.90;;;;;;;7.08;45.76;99475.75;4899370;29;20186;-89
2022/01/28 22:46:04;;;;;;;4.33;0.93;;;;;;;6.87;45.96;99468.63;4913815;29;20187;-87
2022/01/28 22:48:30;;;;;;;2.03;0.83;;;;;;;6.79;45.95;99466.28;4898793;29;20250;-86
2022/01/28 22:50:56;;;;;;;4.33;1.13;;;;;;;6.71;45.74;99465.66;4897839;29;20210;-87
2022/01/28 22:53:21;;;;;;;2.23;1.20;;;;;;;6.98;45.81;99460.47;4913583;29;20247;-84
2022/01/28 22:55:47;;;;;;;1.50;1.00;;;;;;;6.98;45.84;99458.72;4913490;29;20179;-85
2022/01/28 22:58:16;;;;;;;1.23;1.00;;;;;;;7.03;45.05;99449.00;4898534;29;20190;-92
2022/01/28 23:00:42;;;;;;;2.97;1.60;;;;;;;6.88;45.38;99452.13;4897622;29;20179;-90
2022/01/28 23:03:07;;;;;;;1.63;0.80;;;;;;;6.85;45.18;99447.00;4898472;29;20187;-84
2022/01/28 23:05:33;;;;;;;3.97;1.10;;;;;;;6.94;45.63;99451.06;4897500;29;20188;-85
2022/01/28 23:08:00;;;;;;;3.17;1.00;;;;;;;7.04;45.46;99466.34;4898762;29;20190;-86
2022/01/28 23:10:26;;;;;;;2.77;0.53;;;;;;;6.88;45.61;99464.28;4913975;29;20541;-84
2022/01/28 23:12:53;;;;;;;1.43;0.80;;;;;;;6.76;46.05;99460.34;4898655;29;20186;-88
2022/01/28 23:15:19;;;;;;;2.10;0.93;;;;;;;6.86;45.66;99463.50;4913369;29;20179;-89
2022/01/28 23:17:45;;;;;;;1.37;0.70;;;;;;;6.94;45.51;99462.34;4898201;29;20534;-86
2022/01/28 23:20:11;;;;;;;1.80;0.77;;;;;;;7.12;45.65;99463.50;4897769;29;20199;-88
2022/01/28 23:22:37;;;;;;;3.53;1.10;;;;;;;7.31;45.20;99465.41;4897362;29;20249;-86
2022/01/28 23:25:05;;;;;;;1.50;1.17;;;;;;;7.07;45.75;99457.56;4913218;29;20668;-83
2022/01/28 23:27:31;;;;;;;1.13;0.73;;;;;;;6.98;45.90;99468.28;4913855;29;20182;-84
2022/01/28 23:29:57;;;;;;;3.17;1.83;;;;;;;7.02;45.70;99449.06;4912954;29;20314;-85
2022/01/28 23:32:23;;;;;;;1.90;1.23;;;;;;;6.97;46.51;99461.41;4898255;29;20215;-85
2022/01/28 23:34:51;;;;;;;2.23;1.17;;;;;;;6.97;46.48;99464.00;4912961;29;20278;-91
2022/01/28 23:37:17;;;;;;;1.53;0.90;;;;;;;7.02;46.58;99449.91;4898776;29;20187;-84
2022/01/28 23:39:42;;;;;;;3.83;1.10;;;;;;;7.12;46.57;99453.06;4898166;29;20197;-86
2022/01/28 23:42:08;;;;;;;2.43;1.03;;;;;;;7.06;46.68;99450.66;4898105;29;20238;-86
2022/01/28 23:44:33;;;;;;;2.63;1.17;;;;;;;6.87;47.16;99473.84;4898091;29;20750;-85
2022/01/28 23:46:59;;;;;;;2.30;1.20;;;;;;;6.92;47.18;99468.50;4898044;29;20187;-86
2022/01/28 23:49:24;;;;;;;3.93;1.73;;;;;;;7.01;47.25;99466.44;4897964;29;20256;-87
2022/01/28 23:51:49;;;;;;;1.30;1.00;;;;;;;7.26;46.75;99445.59;4898350;29;20211;-85
2022/01/28 23:54:15;;;;;;;2.00;1.10;;;;;;;7.05;46.53;99451.56;4897911;29;20213;-85
2022/01/28 23:56:41;;;;;;;3.00;0.90;;;;;;;6.88;46.97;99462.53;4912617;29;20193;-90
2022/01/28 23:59:06;;;;;;;4.23;1.60;;;;;;;7.06;47.19;99455.84;4897591;29;20183;-86
